Time;durP1;ratioP1;P1;durP2;ratioP2;P2;SDS_P1;SDS_P2;PMS_P1;PMS_P2;Temp;Humidity;BMP_temperature;BMP_pressure;BME280_temperature;BME280_humidity;BME280_pressure;Samples;Min_cycle;Max_cycle;Signal;HPM_P1;HPM_P2
2022/02/03 00:04:58;;;;;;;;;;;1.90;99.40;;;;;;5103222;28;19912;-63
2022/02/03 00:07:32;;;;;;;;;;;1.90;99.30;;;;;;5102951;28;19954;-63
2022/02/03 00:25:50;;;;;;;;;;;1.80;99.00;;;;;;5103005;28;19908;-64
2022/02/03 00:28:22;;;;;;;;;;;1.70;99.00;;;;;;5101291;28;19943;-63
2022/02/03 00:33:33;;;;;;;;;;;1.60;99.10;;;;;;5101829;28;20118;-64
2022/02/03 00:48:13;;;;;;;;;;;1.60;99.00;;;;;;5106805;28;19908;-65
2022/02/03 00:49:35;;;;;;;;;;;1.50;99.20;;;;;;5105716;28;20078;-63
2022/02/03 00:52:01;;;;;;;;;;;1.50;99.10;;;;;;5106491;28;19908;-63
2022/02/03 00:54:30;;;;;;;;;;;1.40;99.20;;;;;;5106608;28;19908;-62
2022/02/03 00:57:07;;;;;;;;;;;1.40;99.40;;;;;;5106552;28;19916;-62
2022/02/03 00:59:37;;;;;;;;;;;1.40;99.50;;;;;;5106174;28;19928;-63
2022/02/03 01:02:12;;;;;;;;;;;1.50;99.50;;;;;;5106297;28;20117;-63
2022/02/03 01:04:40;;;;;;;;;;;1.50;99.40;;;;;;5106460;28;19930;-65
2022/02/03 01:07:23;;;;;;;;;;;1.50;99.30;;;;;;5106299;28;19947;-65
2022/02/03 01:10:38;;;;;;;;;;;1.50;99.40;;;;;;5105151;28;19919;-63
2022/02/03 01:12:54;;;;;;;;;;;1.60;98.80;;;;;;5085942;28;19915;-63
2022/02/03 01:44:58;;;;;;;;;;;1.50;98.50;;;;;;5090187;28;19923;-64
2022/02/03 01:47:34;;;;;;;;;;;1.50;98.60;;;;;;5103357;28;19915;-64
2022/02/03 01:52:38;;;;;;;;;;;1.50;98.30;;;;;;5105158;28;19915;-64
2022/02/03 01:55:09;;;;;;;;;;;1.60;98.20;;;;;;5105620;28;19908;-64
2022/02/03 01:57:36;;;;;;;;;;;1.60;98.00;;;;;;5104543;28;19914;-64
2022/02/03 02:00:11;;;;;;;;;;;1.60;98.00;;;;;;5105306;28;19908;-64
2022/02/03 02:02:43;;;;;;;;;;;1.60;98.10;;;;;;5105485;28;19980;-64
2022/02/03 02:05:53;;;;;;;;;;;1.50;98.10;;;;;;5105438;28;19908;-63
2022/02/03 02:08:31;;;;;;;;;;;1.60;98.00;;;;;;5085612;28;19975;-65
2022/02/03 02:11:51;;;;;;;;;;;1.60;98.00;;;;;;5103937;28;19919;-63
2022/02/03 02:39:00;;;;;;;;;;;1.40;99.00;;;;;;5104552;28;19978;-64
2022/02/03 02:44:55;;;;;;;;;;;1.50;98.90;;;;;;5098756;28;19957;-64
2022/02/03 02:47:27;;;;;;;;;;;1.50;98.90;;;;;;5103355;28;19911;-64
2022/02/03 02:50:05;;;;;;;;;;;1.60;98.80;;;;;;5104381;28;20207;-64
2022/02/03 02:52:40;;;;;;;;;;;1.60;98.90;;;;;;5103263;28;19977;-64
2022/02/03 03:00:35;;;;;;;;;;;1.80;99.00;;;;;;5103983;28;19908;-64
2022/02/03 03:33:44;;;;;;;;;;;2.00;99.30;;;;;;5102921;28;19908;-63
2022/02/03 03:36:13;;;;;;;;;;;2.10;99.50;;;;;;5102964;28;19908;-64
2022/02/03 03:38:42;;;;;;;;;;;2.10;99.40;;;;;;5103958;28;19908;-64
2022/02/03 03:41:08;;;;;;;;;;;2.20;99.20;;;;;;5103888;28;19908;-64
2022/02/03 03:43:41;;;;;;;;;;;2.20;99.20;;;;;;5102745;28;19908;-64
2022/02/03 03:46:20;;;;;;;;;;;2.30;99.10;;;;;;5091142;22;20101;-64
2022/02/03 03:49:08;;;;;;;;;;;2.30;98.90;;;;;;5035940;28;20085;-65
2022/02/03 03:51:44;;;;;;;;;;;2.20;99.00;;;;;;5041837;28;19940;-65
2022/02/03 03:54:15;;;;;;;;;;;2.20;99.10;;;;;;5042997;28;19912;-65
2022/02/03 04:37:45;;;;;;;;;;;2.50;99.40;;;;;;5026487;28;19948;-65
2022/02/03 05:07:04;;;;;;;;;;;2.70;99.80;;;;;;5013834;28;19916;-66
2022/02/03 05:10:01;;;;;;;;;;;2.70;99.80;;;;;;5025888;28;19914;-65
2022/02/03 05:13:00;;;;;;;;;;;2.70;99.90;;;;;;5012178;28;19979;-66
2022/02/03 06:02:51;;;;;;;;;;;3.20;99.90;;;;;;5024539;28;20001;-66
2022/02/03 06:05:29;;;;;;;;;;;3.30;99.90;;;;;;5022567;28;19909;-66
2022/02/03 06:23:26;;;;;;;;;;;3.40;99.90;;;;;;5024274;28;19945;-66
2022/02/03 06:28:42;;;;;;;;;;;3.50;99.90;;;;;;5018929;28;20259;-66
2022/02/03 06:31:07;;;;;;;;;;;3.50;99.90;;;;;;5004455;28;20108;-66
2022/02/03 06:33:33;;;;;;;;;;;3.50;99.90;;;;;;5004085;28;19916;-66
2022/02/03 06:35:59;;;;;;;;;;;3.50;99.90;;;;;;5004159;28;19922;-65
2022/02/03 06:38:24;;;;;;;;;;;3.60;99.90;;;;;;5004392;28;19910;-65
2022/02/03 06:40:50;;;;;;;;;;;3.60;99.90;;;;;;5004363;28;19960;-66
2022/02/03 06:43:18;;;;;;;;;;;3.60;99.90;;;;;;5004706;28;20256;-66
2022/02/03 06:45:48;;;;;;;;;;;3.60;99.90;;;;;;5016961;28;19914;-66
2022/02/03 06:48:17;;;;;;;;;;;3.60;99.90;;;;;;5024008;28;20086;-66
2022/02/03 06:50:52;;;;;;;;;;;3.60;99.90;;;;;;5023737;28;19937;-66
2022/02/03 06:53:23;;;;;;;;;;;3.60;99.90;;;;;;5024252;28;19916;-66
2022/02/03 06:56:53;;;;;;;;;;;3.60;99.90;;;;;;5023514;28;19933;-66
2022/02/03 06:58:51;;;;;;;;;;;3.60;99.90;;;;;;5010533;28;19909;-65
2022/02/03 07:01:28;;;;;;;;;;;3.70;99.90;;;;;;5020372;28;20201;-69
2022/02/03 07:03:59;;;;;;;;;;;3.70;99.90;;;;;;5005521;28;19948;-71
2022/02/03 07:06:24;;;;;;;;;;;3.70;99.90;;;;;;5023865;28;19910;-68
2022/02/03 07:08:52;;;;;;;;;;;3.80;99.90;;;;;;5023688;28;19909;-68
2022/02/03 07:11:20;;;;;;;;;;;3.80;99.90;;;;;;5023493;28;20148;-70
2022/02/03 07:13:46;;;;;;;;;;;3.80;99.90;;;;;;5023875;28;19915;-68
2022/02/03 07:16:12;;;;;;;;;;;3.90;99.90;;;;;;5005132;28;19941;-68
2022/02/03 07:18:38;;;;;;;;;;;3.90;99.90;;;;;;5022449;28;20231;-65
2022/02/03 07:21:04;;;;;;;;;;;3.90;99.90;;;;;;5023345;28;19913;-65
2022/02/03 07:23:29;;;;;;;;;;;3.90;99.90;;;;;;5023573;28;20186;-65
2022/02/03 07:25:55;;;;;;;;;;;3.90;99.90;;;;;;5023416;28;19916;-66
2022/02/03 07:28:21;;;;;;;;;;;3.90;99.90;;;;;;5023325;28;19913;-65
2022/02/03 07:30:46;;;;;;;;;;;4.00;99.90;;;;;;5022739;28;19968;-64
2022/02/03 07:33:13;;;;;;;;;;;4.10;99.90;;;;;;5023391;28;19932;-64
2022/02/03 07:35:38;;;;;;;;;;;4.10;99.90;;;;;;5023187;28;19909;-65
2022/02/03 07:38:07;;;;;;;;;;;4.10;99.90;;;;;;5023441;28;19910;-64
2022/02/03 07:40:33;;;;;;;;;;;4.10;99.90;;;;;;5006168;28;20089;-65
2022/02/03 07:43:01;;;;;;;;;;;4.10;99.90;;;;;;5022936;28;19913;-64
2022/02/03 07:45:27;;;;;;;;;;;4.20;99.90;;;;;;5022397;28;19921;-64
2022/02/03 07:47:54;;;;;;;;;;;4.20;99.90;;;;;;5022458;28;20104;-64
2022/02/03 07:50:19;;;;;;;;;;;4.20;99.90;;;;;;5005690;28;19913;-65
2022/02/03 07:52:45;;;;;;;;;;;4.20;99.90;;;;;;5003186;28;19916;-64
2022/02/03 07:55:11;;;;;;;;;;;4.30;99.90;;;;;;4985992;28;19917;-64
2022/02/03 07:57:45;;;;;;;;;;;4.30;99.90;;;;;;5003442;28;20253;-65
2022/02/03 08:00:11;;;;;;;;;;;4.40;99.90;;;;;;5013792;28;19917;-65
2022/02/03 08:02:41;;;;;;;;;;;4.40;99.90;;;;;;5022426;28;19977;-65
2022/02/03 08:05:08;;;;;;;;;;;4.50;99.90;;;;;;5022622;28;20097;-65
2022/02/03 08:07:35;;;;;;;;;;;4.50;99.90;;;;;;5022637;28;19910;-66
2022/02/03 08:10:06;;;;;;;;;;;4.60;99.90;;;;;;5022327;28;19920;-66
2022/02/03 08:12:35;;;;;;;;;;;4.60;99.90;;;;;;5022756;28;19989;-66
2022/02/03 08:15:02;;;;;;;;;;;4.60;99.90;;;;;;5022488;28;19917;-66
2022/02/03 08:17:38;;;;;;;;;;;4.60;99.90;;;;;;5023005;28;19918;-66
2022/02/03 08:20:13;;;;;;;;;;;4.70;99.90;;;;;;5006419;28;19916;-67
2022/02/03 08:22:48;;;;;;;;;;;4.70;99.90;;;;;;5022792;28;19917;-66
2022/02/03 08:25:21;;;;;;;;;;;4.70;99.90;;;;;;5022736;28;19916;-67
2022/02/03 08:30:45;;;;;;;;;;;4.80;99.90;;;;;;5018086;28;20004;-67
2022/02/03 08:33:17;;;;;;;;;;;4.90;99.90;;;;;;5022985;28;20085;-67
2022/02/03 08:35:47;;;;;;;;;;;4.90;99.90;;;;;;5022627;28;19910;-67
2022/02/03 08:40:57;;;;;;;;;;;5.00;99.90;;;;;;5022409;28;20143;-66
2022/02/03 08:43:24;;;;;;;;;;;5.00;99.90;;;;;;5020222;28;19916;-66
2022/02/03 08:45:50;;;;;;;;;;;5.00;99.90;;;;;;5022084;28;20329;-66
2022/02/03 08:48:16;;;;;;;;;;;5.00;99.90;;;;;;5022650;28;19980;-67
2022/02/03 08:50:42;;;;;;;;;;;5.10;99.90;;;;;;5022387;28;19917;-66
2022/02/03 09:58:22;;;;;;;;;;;6.20;99.90;;;;;;5043682;28;19956;-64
2022/02/03 10:06:11;;;;;;;;;;;6.30;99.90;;;;;;5064016;28;19913;-65
2022/02/03 10:08:37;;;;;;;;;;;6.40;99.90;;;;;;5062861;28;19915;-65
2022/02/03 10:11:17;;;;;;;;;;;6.40;99.90;;;;;;5063249;28;19913;-65
2022/02/03 10:13:47;;;;;;;;;;;6.50;99.90;;;;;;5063171;28;19909;-65
2022/02/03 10:16:14;;;;;;;;;;;6.70;99.90;;;;;;5063650;28;19943;-65
2022/02/03 10:18:40;;;;;;;;;;;6.80;99.90;;;;;;5063121;28;19909;-65
2022/02/03 10:21:09;;;;;;;;;;;7.00;99.90;;;;;;5062217;28;20180;-65
2022/02/03 10:24:17;;;;;;;;;;;7.10;99.80;;;;;;5046239;28;19937;-64
2022/02/03 10:26:49;;;;;;;;;;;7.30;99.70;;;;;;5063400;28;19951;-65
2022/02/03 10:29:21;;;;;;;;;;;7.50;99.20;;;;;;5045584;28;20156;-65
2022/02/03 10:31:47;;;;;;;;;;;7.60;98.90;;;;;;5063095;28;19993;-65
2022/02/03 10:34:20;;;;;;;;;;;7.80;98.50;;;;;;5045327;28;19947;-65
2022/02/03 10:39:58;;;;;;;;;;;8.00;98.60;;;;;;5063047;28;19908;-65
2022/02/03 11:11:13;;;;;;;;;;;8.20;98.60;;;;;;5045319;28;19921;-67
2022/02/03 11:13:38;;;;;;;;;;;8.00;98.80;;;;;;5062110;28;19916;-66
2022/02/03 11:16:05;;;;;;;;;;;8.00;99.00;;;;;;5027500;28;19950;-66
2022/02/03 11:18:32;;;;;;;;;;;7.80;99.00;;;;;;5061566;28;20207;-67
2022/02/03 11:20:59;;;;;;;;;;;7.80;99.20;;;;;;5060768;28;19946;-68
2022/02/03 11:26:09;;;;;;;;;;;7.80;99.20;;;;;;5061849;28;19921;-67
2022/02/03 11:45:10;;;;;;;;;;;8.10;98.50;;;;;;5061388;28;19975;-67
2022/02/03 11:50:35;;;;;;;;;;;8.20;98.00;;;;;;5061649;28;20004;-66
2022/02/03 12:04:29;;;;;;;;;;;8.50;96.80;;;;;;5059848;28;19915;-67
2022/02/03 12:17:39;;;;;;;;;;;8.70;95.60;;;;;;5061304;28;20116;-67
2022/02/03 12:20:12;;;;;;;;;;;8.70;95.40;;;;;;5061087;28;19909;-66
2022/02/03 12:22:58;;;;;;;;;;;8.70;95.20;;;;;;5047710;28;19940;-67
2022/02/03 12:25:43;;;;;;;;;;;8.70;95.20;;;;;;5044724;28;19923;-66
2022/02/03 12:31:14;;;;;;;;;;;8.70;95.30;;;;;;5062131;28;19975;-67
2022/02/03 12:38:52;;;;;;;;;;;8.80;95.60;;;;;;5049880;28;19916;-66
2022/02/03 12:41:21;;;;;;;;;;;8.80;95.00;;;;;;5064318;28;20414;-67
2022/02/03 12:43:58;;;;;;;;;;;8.90;94.40;;;;;;5047046;28;19950;-67
2022/02/03 12:46:24;;;;;;;;;;;8.90;94.30;;;;;;5047666;28;19983;-67
2022/02/03 12:48:55;;;;;;;;;;;8.90;94.30;;;;;;5046668;28;19908;-67
2022/02/03 12:51:21;;;;;;;;;;;8.90;94.50;;;;;;5062908;28;20218;-67
2022/02/03 12:53:47;;;;;;;;;;;9.00;94.30;;;;;;5061190;28;19916;-67
2022/02/03 12:56:13;;;;;;;;;;;9.10;94.10;;;;;;5046544;28;19917;-66
2022/02/03 12:58:48;;;;;;;;;;;9.10;93.90;;;;;;5064666;28;20199;-67
2022/02/03 13:01:27;;;;;;;;;;;9.10;93.70;;;;;;5047437;28;19909;-67
2022/02/03 13:03:53;;;;;;;;;;;9.20;93.70;;;;;;5065140;28;19916;-66
2022/02/03 13:06:22;;;;;;;;;;;9.20;93.60;;;;;;5047216;28;19996;-67
2022/02/03 13:08:51;;;;;;;;;;;9.20;93.50;;;;;;5064709;28;19921;-67
2022/02/03 13:14:17;;;;;;;;;;;9.10;92.90;;;;;;5064744;28;19972;-67
2022/02/03 13:17:06;;;;;;;;;;;9.00;92.90;;;;;;5046485;28;19978;-67
2022/02/03 13:20:06;;;;;;;;;;;9.00;93.20;;;;;;5049173;28;20088;-66
2022/02/03 13:22:34;;;;;;;;;;;9.00;93.50;;;;;;5061297;28;19924;-67
2022/02/03 13:33:24;;;;;;;;;;;9.00;93.30;;;;;;5064262;28;19975;-67
2022/02/03 13:41:07;;;;;;;;;;;9.00;93.60;;;;;;5046160;28;19997;-67
2022/02/03 13:43:38;;;;;;;;;;;9.00;93.30;;;;;;5062915;28;19948;-67
2022/02/03 13:46:04;;;;;;;;;;;9.00;93.50;;;;;;5063785;28;20031;-67
2022/02/03 13:48:30;;;;;;;;;;;9.00;93.60;;;;;;5045471;28;19920;-66
2022/02/03 13:50:59;;;;;;;;;;;8.90;92.80;;;;;;5063211;28;20008;-66
2022/02/03 13:53:40;;;;;;;;;;;8.90;93.10;;;;;;5063560;28;20246;-66
2022/02/03 14:18:16;;;;;;;;;;;8.90;92.60;;;;;;5069722;28;19909;-66
2022/02/03 14:20:49;;;;;;;;;;;8.90;92.60;;;;;;5082650;28;19909;-65
2022/02/03 14:28:31;;;;;;;;;;;8.90;92.80;;;;;;5063048;28;20393;-64
2022/02/03 14:31:00;;;;;;;;;;;8.90;92.80;;;;;;5062265;28;19912;-65
2022/02/03 14:33:29;;;;;;;;;;;8.90;92.90;;;;;;5063019;28;20146;-65
2022/02/03 14:36:04;;;;;;;;;;;8.90;93.00;;;;;;5062609;28;19909;-64
2022/02/03 14:38:35;;;;;;;;;;;8.90;93.00;;;;;;5046366;28;20230;-65
2022/02/03 14:43:44;;;;;;;;;;;8.90;93.00;;;;;;5062899;28;20203;-65
2022/02/03 14:46:14;;;;;;;;;;;8.90;93.10;;;;;;5062644;28;19981;-64
2022/02/03 14:48:42;;;;;;;;;;;8.90;93.30;;;;;;5062554;28;19921;-65
2022/02/03 14:51:09;;;;;;;;;;;8.90;93.00;;;;;;5044975;28;19944;-65
2022/02/03 14:59:05;;;;;;;;;;;8.90;93.10;;;;;;5046831;28;19932;-65
2022/02/03 15:01:32;;;;;;;;;;;8.90;93.00;;;;;;5043752;28;20134;-65
2022/02/03 15:04:03;;;;;;;;;;;8.90;92.90;;;;;;5044446;28;19908;-64
2022/02/03 15:06:36;;;;;;;;;;;8.90;93.00;;;;;;5062313;28;19984;-65
2022/02/03 15:14:14;;;;;;;;;;;8.80;93.30;;;;;;5045698;28;19909;-65
2022/02/03 15:16:40;;;;;;;;;;;8.80;93.30;;;;;;5061932;28;20261;-65
2022/02/03 15:19:06;;;;;;;;;;;8.80;93.40;;;;;;5027468;28;19909;-65
2022/02/03 15:21:32;;;;;;;;;;;8.80;93.30;;;;;;5042099;28;19913;-66
2022/02/03 15:23:58;;;;;;;;;;;8.80;93.50;;;;;;5042085;28;20164;-65
2022/02/03 15:26:24;;;;;;;;;;;8.80;93.50;;;;;;5041994;28;19944;-65
2022/02/03 15:28:50;;;;;;;;;;;8.80;93.60;;;;;;5026602;28;19909;-66
2022/02/03 15:31:19;;;;;;;;;;;8.80;93.60;;;;;;5060893;28;20390;-66
2022/02/03 15:33:52;;;;;;;;;;;8.70;93.60;;;;;;5061779;28;19937;-65
2022/02/03 15:36:18;;;;;;;;;;;8.70;93.70;;;;;;5061722;28;20126;-65
2022/02/03 15:38:48;;;;;;;;;;;8.70;93.70;;;;;;5061672;28;19909;-65
2022/02/03 15:41:28;;;;;;;;;;;8.70;93.60;;;;;;5061599;28;19943;-65
2022/02/03 15:43:56;;;;;;;;;;;8.70;93.60;;;;;;5061701;28;19913;-65
2022/02/03 15:46:23;;;;;;;;;;;8.70;93.60;;;;;;5043857;28;19909;-64
2022/02/03 15:49:29;;;;;;;;;;;8.70;93.60;;;;;;5050256;28;20171;-65
2022/02/03 16:18:15;;;;;;;;;;;8.50;93.60;;;;;;5054988;28;19909;-66
2022/02/03 16:20:49;;;;;;;;;;;8.50;93.60;;;;;;5053288;28;20305;-66
2022/02/03 16:23:56;;;;;;;;;;;8.50;93.60;;;;;;5061371;28;19916;-66
2022/02/03 16:50:58;;;;;;;;;;;8.30;94.60;;;;;;5006648;28;19920;-65
2022/02/03 16:53:24;;;;;;;;;;;8.20;95.00;;;;;;5061232;28;19909;-66
2022/02/03 16:55:50;;;;;;;;;;;8.20;95.10;;;;;;5061053;28;20209;-66
2022/02/03 16:58:15;;;;;;;;;;;8.20;95.10;;;;;;5061097;28;19908;-65
2022/02/03 17:00:44;;;;;;;;;;;8.10;95.20;;;;;;5060144;28;19947;-66
2022/02/03 17:03:10;;;;;;;;;;;8.10;95.20;;;;;;5060962;28;19932;-65
2022/02/03 17:05:37;;;;;;;;;;;8.10;95.20;;;;;;5060788;28;20208;-66
2022/02/03 17:08:05;;;;;;;;;;;8.10;95.20;;;;;;5060821;28;19924;-65
2022/02/03 17:10:30;;;;;;;;;;;8.10;95.20;;;;;;5060627;28;19913;-66
2022/02/03 17:12:56;;;;;;;;;;;8.10;95.30;;;;;;5060680;28;19916;-66
2022/02/03 17:15:22;;;;;;;;;;;8.20;95.20;;;;;;5060976;28;19915;-66
2022/02/03 17:17:50;;;;;;;;;;;8.20;95.20;;;;;;5063405;28;20298;-66
2022/02/03 17:20:17;;;;;;;;;;;8.20;95.30;;;;;;5064408;28;19970;-66
2022/02/03 17:22:47;;;;;;;;;;;8.20;95.00;;;;;;5064035;28;19917;-65
2022/02/03 17:25:45;;;;;;;;;;;8.30;94.90;;;;;;5064535;28;19917;-65
2022/02/03 17:28:07;;;;;;;;;;;8.30;95.00;;;;;;5063578;28;19909;-66
2022/02/03 17:30:39;;;;;;;;;;;8.30;95.00;;;;;;5064012;28;19913;-65
2022/02/03 18:51:18;;;;;;;;;;;7.80;96.00;;;;;;5061420;28;19948;-69
2022/02/03 18:59:13;;;;;;;;;;;7.80;96.10;;;;;;5039994;28;19995;-71
2022/02/03 20:07:00;;;;;;;;;;;7.40;97.40;;;;;;5060539;28;20119;-73
2022/02/03 20:09:53;;;;;;;;;;;7.40;97.40;;;;;;5041920;28;20114;-72
2022/02/03 20:12:14;;;;;;;;;;;7.40;97.40;;;;;;5026155;28;20175;-71
2022/02/03 20:14:40;;;;;;;;;;;7.50;97.30;;;;;;5022928;28;19909;-72
2022/02/03 20:17:06;;;;;;;;;;;7.50;97.20;;;;;;5040150;28;20016;-73
2022/02/03 20:19:32;;;;;;;;;;;7.50;97.20;;;;;;5039226;28;20088;-74
2022/02/03 20:21:57;;;;;;;;;;;7.40;97.40;;;;;;5022753;28;19916;-73
2022/02/03 20:24:24;;;;;;;;;;;7.40;97.50;;;;;;5040434;28;20236;-72
2022/02/03 20:26:50;;;;;;;;;;;7.40;97.60;;;;;;5023057;28;19909;-72
2022/02/03 20:29:16;;;;;;;;;;;7.40;97.60;;;;;;5040831;28;19988;-73
2022/02/03 20:31:42;;;;;;;;;;;7.30;97.70;;;;;;5045962;28;19908;-72
2022/02/03 20:34:07;;;;;;;;;;;7.30;97.70;;;;;;5023268;28;19916;-72
2022/02/03 20:36:33;;;;;;;;;;;7.30;97.80;;;;;;5040996;28;20142;-72
2022/02/03 20:38:59;;;;;;;;;;;7.30;97.80;;;;;;5023565;28;19948;-72
2022/02/03 20:41:25;;;;;;;;;;;7.30;97.80;;;;;;5052323;28;19918;-72
2022/02/03 20:43:50;;;;;;;;;;;7.30;97.70;;;;;;5043132;28;19909;-72
2022/02/03 20:46:16;;;;;;;;;;;7.30;97.80;;;;;;5043052;28;19908;-72
2022/02/03 20:48:49;;;;;;;;;;;7.30;97.60;;;;;;5042745;28;19985;-73
2022/02/03 20:51:16;;;;;;;;;;;7.40;97.60;;;;;;5043260;28;19924;-74
2022/02/03 20:53:42;;;;;;;;;;;7.40;97.50;;;;;;5046287;28;19908;-72
2022/02/03 20:56:07;;;;;;;;;;;7.50;97.30;;;;;;5056338;28;20030;-72
2022/02/03 20:58:33;;;;;;;;;;;7.50;97.30;;;;;;5066220;28;19920;-72
2022/02/03 21:01:07;;;;;;;;;;;7.50;97.30;;;;;;5066242;28;19972;-72
2022/02/03 21:03:42;;;;;;;;;;;7.40;97.30;;;;;;5080211;28;19976;-72
2022/02/03 21:06:10;;;;;;;;;;;7.40;97.50;;;;;;5084372;28;19955;-72
2022/02/03 21:08:39;;;;;;;;;;;7.40;97.60;;;;;;5066912;28;19909;-73
2022/02/03 21:11:05;;;;;;;;;;;7.40;97.70;;;;;;5049421;28;20119;-73
2022/02/03 21:13:31;;;;;;;;;;;7.30;97.70;;;;;;5083744;28;19947;-73
2022/02/03 21:15:59;;;;;;;;;;;7.30;97.80;;;;;;5066316;28;19909;-72
2022/02/03 21:18:26;;;;;;;;;;;7.30;97.80;;;;;;5066014;28;19908;-72
2022/02/03 21:20:51;;;;;;;;;;;7.40;97.60;;;;;;5065796;28;19998;-72
2022/02/03 21:23:17;;;;;;;;;;;7.40;97.50;;;;;;5083756;28;19916;-73
2022/02/03 21:25:46;;;;;;;;;;;7.40;97.40;;;;;;5065854;28;19916;-72
2022/02/03 21:28:18;;;;;;;;;;;7.40;97.30;;;;;;5066331;28;19908;-72
2022/02/03 21:30:44;;;;;;;;;;;7.40;97.30;;;;;;5050434;28;19920;-73
2022/02/03 21:33:13;;;;;;;;;;;7.50;97.10;;;;;;5045518;28;19955;-72
2022/02/03 21:35:40;;;;;;;;;;;7.40;96.80;;;;;;5083301;28;19923;-72
2022/02/03 21:38:06;;;;;;;;;;;7.40;97.00;;;;;;5066326;28;19914;-72
2022/02/03 21:40:32;;;;;;;;;;;7.40;97.10;;;;;;5083742;28;19913;-72
2022/02/03 21:42:58;;;;;;;;;;;7.30;97.10;;;;;;5049032;28;19985;-73
2022/02/03 21:45:23;;;;;;;;;;;7.40;97.20;;;;;;5065680;28;19983;-72
2022/02/03 21:47:50;;;;;;;;;;;7.30;96.90;;;;;;5083370;28;19923;-73
2022/02/03 21:50:16;;;;;;;;;;;7.30;96.60;;;;;;5038558;28;19913;-72
2022/02/03 21:52:53;;;;;;;;;;;7.30;96.70;;;;;;5042233;28;19909;-72
2022/02/03 21:55:19;;;;;;;;;;;7.30;96.50;;;;;;5043499;28;19968;-72
2022/02/03 21:57:48;;;;;;;;;;;7.20;96.40;;;;;;5043394;28;19909;-72
2022/02/03 22:00:16;;;;;;;;;;;7.10;96.30;;;;;;5026176;28;20108;-72
2022/02/03 22:02:42;;;;;;;;;;;7.20;95.90;;;;;;5043215;28;19954;-72
2022/02/03 22:05:11;;;;;;;;;;;7.20;95.80;;;;;;5063189;28;19920;-72
2022/02/03 22:07:40;;;;;;;;;;;7.10;95.60;;;;;;5045823;28;19955;-73
2022/02/03 22:10:09;;;;;;;;;;;7.10;95.50;;;;;;5063347;28;20095;-72
2022/02/03 22:12:35;;;;;;;;;;;7.10;95.40;;;;;;5063067;28;20207;-73
2022/02/03 22:15:02;;;;;;;;;;;7.10;95.10;;;;;;5045353;28;19915;-72
2022/02/03 22:17:27;;;;;;;;;;;7.10;95.10;;;;;;5062886;28;19927;-72
2022/02/03 22:19:54;;;;;;;;;;;7.10;94.80;;;;;;5063084;28;19932;-73
2022/02/03 22:38:42;;;;;;;;;;;7.20;93.80;;;;;;5042905;28;20227;-73
2022/02/03 22:43:55;;;;;;;;;;;7.00;93.80;;;;;;5062657;28;19909;-73
2022/02/03 22:48:50;;;;;;;;;;;7.00;93.90;;;;;;5045052;28;19909;-73
2022/02/03 22:51:15;;;;;;;;;;;7.00;93.90;;;;;;5062162;28;19920;-71
2022/02/03 22:53:42;;;;;;;;;;;7.00;93.90;;;;;;5062564;28;20127;-72
2022/02/03 22:56:12;;;;;;;;;;;6.90;94.00;;;;;;5062159;28;19909;-74
2022/02/03 22:59:50;;;;;;;;;;;6.90;94.10;;;;;;5044378;28;19978;-73
2022/02/03 23:01:26;;;;;;;;;;;6.90;94.00;;;;;;5051163;28;20011;-74
2022/02/03 23:03:52;;;;;;;;;;;6.90;94.20;;;;;;5044021;28;19909;-73
2022/02/03 23:06:18;;;;;;;;;;;6.90;94.40;;;;;;5044196;28;20056;-72
2022/02/03 23:16:41;;;;;;;;;;;6.80;94.30;;;;;;5061971;28;20038;-72
2022/02/03 23:19:32;;;;;;;;;;;6.80;94.40;;;;;;5046303;28;20111;-72
2022/02/03 23:24:32;;;;;;;;;;;6.80;94.40;;;;;;5045357;28;20067;-73
2022/02/03 23:27:15;;;;;;;;;;;6.70;94.40;;;;;;5043835;28;19985;-73
2022/02/03 23:29:42;;;;;;;;;;;6.70;94.50;;;;;;5061738;28;19913;-71
2022/02/03 23:32:10;;;;;;;;;;;6.70;94.60;;;;;;5061273;28;20160;-71
2022/02/03 23:34:38;;;;;;;;;;;6.70;94.50;;;;;;5061776;28;20310;-72
2022/02/03 23:37:04;;;;;;;;;;;6.70;94.60;;;;;;5044174;28;20145;-72
2022/02/03 23:39:50;;;;;;;;;;;6.70;94.60;;;;;;5043874;28;19909;-72
